Terminal Aerodrome Forecast
Issued by NWS

Home | Current Version | Previous Version | Text Only | Print | Product List | Glossary On
Versions: 1 2 3 4 5 6 7 8 9 10 11 12 13 14 15 16 17 18 19 20 21 22 23 24
000
FTUS43 KDVN 270324 AAA
TAFCID
TAF AMD
KCID 270324Z 2703/2724 20003KT P6SM BKN025 BKN100
     FM270900 27006KT 4SM BR BKN015
     FM271500 29010KT P6SM SCT025=

USA.gov is the U.S. government's official web portal to all federal, state and local government web resources and services.